sensor_id;sensor_type;location;lat;lon;timestamp;P1;durP1;ratioP1;P2;durP2;ratioP2
50319;SDS011;36226;53.464;9.852;2022-07-05T00:01:58;3.22;;;1.40;;
50319;SDS011;36226;53.464;9.852;2022-07-05T00:04:23;2.13;;;0.98;;
50319;SDS011;36226;53.464;9.852;2022-07-05T00:06:48;6.80;;;1.30;;
50319;SDS011;36226;53.464;9.852;2022-07-05T00:09:32;4.90;;;1.13;;
50319;SDS011;36226;53.464;9.852;2022-07-05T00:11:58;4.85;;;1.30;;
50319;SDS011;36226;53.464;9.852;2022-07-05T00:14:23;3.92;;;1.00;;
50319;SDS011;36226;53.464;9.852;2022-07-05T00:16:49;3.38;;;1.25;;
50319;SDS011;36226;53.464;9.852;2022-07-05T00:19:14;4.18;;;1.30;;
50319;SDS011;36226;53.464;9.852;2022-07-05T00:21:40;5.35;;;1.17;;
50319;SDS011;36226;53.464;9.852;2022-07-05T00:24:05;3.15;;;1.20;;
50319;SDS011;36226;53.464;9.852;2022-07-05T00:26:31;2.80;;;1.17;;
50319;SDS011;36226;53.464;9.852;2022-07-05T00:28:56;2.63;;;1.55;;
50319;SDS011;36226;53.464;9.852;2022-07-05T00:31:21;2.10;;;1.20;;
50319;SDS011;36226;53.464;9.852;2022-07-05T00:33:47;2.80;;;1.30;;
50319;SDS011;36226;53.464;9.852;2022-07-05T00:36:12;4.05;;;1.45;;
50319;SDS011;36226;53.464;9.852;2022-07-05T00:38:37;3.65;;;1.48;;
50319;SDS011;36226;53.464;9.852;2022-07-05T00:41:03;2.70;;;1.40;;
50319;SDS011;36226;53.464;9.852;2022-07-05T00:43:28;4.40;;;1.33;;
50319;SDS011;36226;53.464;9.852;2022-07-05T00:45:54;2.20;;;1.00;;
50319;SDS011;36226;53.464;9.852;2022-07-05T00:48:19;2.72;;;1.15;;
50319;SDS011;36226;53.464;9.852;2022-07-05T00:50:45;6.38;;;1.45;;
50319;SDS011;36226;53.464;9.852;2022-07-05T00:53:10;2.65;;;1.38;;
50319;SDS011;36226;53.464;9.852;2022-07-05T00:55:35;4.25;;;1.55;;
50319;SDS011;36226;53.464;9.852;2022-07-05T00:58:01;3.47;;;1.52;;
50319;SDS011;36226;53.464;9.852;2022-07-05T01:00:26;2.63;;;1.10;;
50319;SDS011;36226;53.464;9.852;2022-07-05T01:02:52;3.67;;;1.40;;
50319;SDS011;36226;53.464;9.852;2022-07-05T01:05:17;3.40;;;1.58;;
50319;SDS011;36226;53.464;9.852;2022-07-05T01:07:42;7.93;;;1.58;;
50319;SDS011;36226;53.464;9.852;2022-07-05T01:10:08;3.88;;;1.55;;
50319;SDS011;36226;53.464;9.852;2022-07-05T01:12:34;2.40;;;1.50;;
50319;SDS011;36226;53.464;9.852;2022-07-05T01:14:59;2.60;;;1.60;;
50319;SDS011;36226;53.464;9.852;2022-07-05T01:17:24;5.22;;;1.80;;
50319;SDS011;36226;53.464;9.852;2022-07-05T01:19:50;3.78;;;1.55;;
50319;SDS011;36226;53.464;9.852;2022-07-05T01:22:16;3.63;;;1.67;;
50319;SDS011;36226;53.464;9.852;2022-07-05T01:24:44;5.15;;;1.63;;
50319;SDS011;36226;53.464;9.852;2022-07-05T01:27:10;6.38;;;1.88;;
50319;SDS011;36226;53.464;9.852;2022-07-05T01:29:36;4.55;;;1.90;;
50319;SDS011;36226;53.464;9.852;2022-07-05T01:32:01;4.80;;;1.58;;
50319;SDS011;36226;53.464;9.852;2022-07-05T01:34:27;3.97;;;1.98;;
50319;SDS011;36226;53.464;9.852;2022-07-05T01:36:52;2.70;;;1.60;;
50319;SDS011;36226;53.464;9.852;2022-07-05T01:39:17;6.07;;;2.00;;
50319;SDS011;36226;53.464;9.852;2022-07-05T01:41:44;3.95;;;1.80;;
50319;SDS011;36226;53.464;9.852;2022-07-05T01:44:10;5.82;;;1.80;;
50319;SDS011;36226;53.464;9.852;2022-07-05T01:46:36;3.80;;;1.73;;
50319;SDS011;36226;53.464;9.852;2022-07-05T01:49:04;8.85;;;1.90;;
50319;SDS011;36226;53.464;9.852;2022-07-05T01:51:33;5.22;;;2.10;;
50319;SDS011;36226;53.464;9.852;2022-07-05T01:54:00;3.45;;;2.15;;
50319;SDS011;36226;53.464;9.852;2022-07-05T01:56:25;5.57;;;2.40;;
50319;SDS011;36226;53.464;9.852;2022-07-05T01:58:51;3.08;;;2.00;;
50319;SDS011;36226;53.464;9.852;2022-07-05T02:01:27;8.73;;;2.35;;
50319;SDS011;36226;53.464;9.852;2022-07-05T02:03:57;5.78;;;2.20;;
50319;SDS011;36226;53.464;9.852;2022-07-05T02:06:22;5.95;;;2.00;;
50319;SDS011;36226;53.464;9.852;2022-07-05T02:08:47;4.85;;;2.20;;
50319;SDS011;36226;53.464;9.852;2022-07-05T02:11:12;3.35;;;1.98;;
50319;SDS011;36226;53.464;9.852;2022-07-05T02:13:38;3.88;;;1.73;;
50319;SDS011;36226;53.464;9.852;2022-07-05T02:16:03;4.03;;;2.20;;
50319;SDS011;36226;53.464;9.852;2022-07-05T02:18:29;6.63;;;2.30;;
50319;SDS011;36226;53.464;9.852;2022-07-05T02:20:54;6.03;;;2.30;;
50319;SDS011;36226;53.464;9.852;2022-07-05T02:23:19;7.50;;;2.53;;
50319;SDS011;36226;53.464;9.852;2022-07-05T02:25:45;4.18;;;2.03;;
50319;SDS011;36226;53.464;9.852;2022-07-05T02:28:10;2.50;;;1.70;;
50319;SDS011;36226;53.464;9.852;2022-07-05T02:30:35;5.22;;;1.98;;
50319;SDS011;36226;53.464;9.852;2022-07-05T02:33:01;3.10;;;1.90;;
50319;SDS011;36226;53.464;9.852;2022-07-05T02:35:26;4.10;;;1.98;;
50319;SDS011;36226;53.464;9.852;2022-07-05T02:37:51;3.05;;;1.65;;
50319;SDS011;36226;53.464;9.852;2022-07-05T02:40:17;4.82;;;1.83;;
50319;SDS011;36226;53.464;9.852;2022-07-05T02:42:42;5.60;;;1.90;;
50319;SDS011;36226;53.464;9.852;2022-07-05T02:45:07;4.22;;;1.98;;
50319;SDS011;36226;53.464;9.852;2022-07-05T02:47:34;4.22;;;1.90;;
50319;SDS011;36226;53.464;9.852;2022-07-05T02:50:06;3.88;;;1.95;;
50319;SDS011;36226;53.464;9.852;2022-07-05T02:52:33;5.30;;;2.20;;
50319;SDS011;36226;53.464;9.852;2022-07-05T02:54:59;4.78;;;2.25;;
50319;SDS011;36226;53.464;9.852;2022-07-05T02:57:24;4.35;;;2.20;;
50319;SDS011;36226;53.464;9.852;2022-07-05T02:59:50;3.55;;;1.85;;
50319;SDS011;36226;53.464;9.852;2022-07-05T03:02:18;5.30;;;2.40;;
50319;SDS011;36226;53.464;9.852;2022-07-05T03:04:43;6.97;;;2.30;;
50319;SDS011;36226;53.464;9.852;2022-07-05T03:07:09;5.82;;;2.30;;
50319;SDS011;36226;53.464;9.852;2022-07-05T03:09:34;7.53;;;2.60;;
50319;SDS011;36226;53.464;9.852;2022-07-05T03:11:59;2.92;;;2.20;;
50319;SDS011;36226;53.464;9.852;2022-07-05T03:14:25;4.03;;;2.30;;
50319;SDS011;36226;53.464;9.852;2022-07-05T03:16:50;7.10;;;2.67;;
50319;SDS011;36226;53.464;9.852;2022-07-05T03:19:15;5.47;;;2.40;;
50319;SDS011;36226;53.464;9.852;2022-07-05T03:21:41;4.00;;;2.60;;
50319;SDS011;36226;53.464;9.852;2022-07-05T03:24:07;5.30;;;2.25;;
50319;SDS011;36226;53.464;9.852;2022-07-05T03:26:32;5.53;;;2.78;;
50319;SDS011;36226;53.464;9.852;2022-07-05T03:28:58;5.03;;;2.38;;
50319;SDS011;36226;53.464;9.852;2022-07-05T03:31:23;6.15;;;2.72;;
50319;SDS011;36226;53.464;9.852;2022-07-05T03:33:48;4.18;;;2.75;;
50319;SDS011;36226;53.464;9.852;2022-07-05T03:36:14;5.40;;;3.10;;
50319;SDS011;36226;53.464;9.852;2022-07-05T03:38:39;4.00;;;2.78;;
50319;SDS011;36226;53.464;9.852;2022-07-05T03:41:04;3.65;;;2.55;;
50319;SDS011;36226;53.464;9.852;2022-07-05T03:43:30;4.28;;;2.88;;
50319;SDS011;36226;53.464;9.852;2022-07-05T03:45:55;3.63;;;2.65;;
50319;SDS011;36226;53.464;9.852;2022-07-05T03:48:21;5.80;;;3.15;;
50319;SDS011;36226;53.464;9.852;2022-07-05T03:50:46;5.43;;;2.88;;
50319;SDS011;36226;53.464;9.852;2022-07-05T03:53:11;3.85;;;2.80;;
50319;SDS011;36226;53.464;9.852;2022-07-05T03:55:37;6.25;;;2.80;;
50319;SDS011;36226;53.464;9.852;2022-07-05T03:58:02;6.10;;;2.90;;
50319;SDS011;36226;53.464;9.852;2022-07-05T04:00:27;7.53;;;2.67;;
50319;SDS011;36226;53.464;9.852;2022-07-05T04:02:53;5.32;;;2.97;;
50319;SDS011;36226;53.464;9.852;2022-07-05T04:05:18;5.78;;;3.00;;
50319;SDS011;36226;53.464;9.852;2022-07-05T04:07:50;4.55;;;3.40;;
50319;SDS011;36226;53.464;9.852;2022-07-05T04:10:20;4.53;;;2.63;;
50319;SDS011;36226;53.464;9.852;2022-07-05T04:12:46;4.35;;;2.90;;
50319;SDS011;36226;53.464;9.852;2022-07-05T04:15:12;3.67;;;2.60;;
50319;SDS011;36226;53.464;9.852;2022-07-05T04:17:48;5.93;;;2.75;;
50319;SDS011;36226;53.464;9.852;2022-07-05T04:20:14;4.18;;;2.30;;
50319;SDS011;36226;53.464;9.852;2022-07-05T04:22:39;4.88;;;2.90;;
50319;SDS011;36226;53.464;9.852;2022-07-05T04:25:05;5.32;;;2.90;;
50319;SDS011;36226;53.464;9.852;2022-07-05T04:27:45;4.85;;;2.70;;
50319;SDS011;36226;53.464;9.852;2022-07-05T04:30:11;4.63;;;3.05;;
50319;SDS011;36226;53.464;9.852;2022-07-05T04:32:37;4.00;;;2.58;;
50319;SDS011;36226;53.464;9.852;2022-07-05T04:35:02;5.60;;;3.00;;
50319;SDS011;36226;53.464;9.852;2022-07-05T04:37:28;5.95;;;2.88;;
50319;SDS011;36226;53.464;9.852;2022-07-05T04:39:53;6.28;;;2.78;;
50319;SDS011;36226;53.464;9.852;2022-07-05T04:42:18;4.97;;;2.80;;
50319;SDS011;36226;53.464;9.852;2022-07-05T04:44:44;5.78;;;3.10;;
50319;SDS011;36226;53.464;9.852;2022-07-05T04:47:09;6.05;;;2.65;;
50319;SDS011;36226;53.464;9.852;2022-07-05T04:49:34;7.60;;;2.72;;
50319;SDS011;36226;53.464;9.852;2022-07-05T04:52:00;4.80;;;2.67;;
50319;SDS011;36226;53.464;9.852;2022-07-05T04:54:25;4.93;;;2.25;;
50319;SDS011;36226;53.464;9.852;2022-07-05T04:56:50;6.57;;;2.70;;
50319;SDS011;36226;53.464;9.852;2022-07-05T04:59:16;6.30;;;2.65;;
50319;SDS011;36226;53.464;9.852;2022-07-05T05:01:41;4.45;;;2.50;;
50319;SDS011;36226;53.464;9.852;2022-07-05T05:04:06;3.53;;;2.60;;
50319;SDS011;36226;53.464;9.852;2022-07-05T05:06:32;7.90;;;2.65;;
50319;SDS011;36226;53.464;9.852;2022-07-05T05:08:57;7.35;;;2.60;;
50319;SDS011;36226;53.464;9.852;2022-07-05T05:11:22;3.67;;;2.70;;
50319;SDS011;36226;53.464;9.852;2022-07-05T05:13:48;7.63;;;2.40;;
50319;SDS011;36226;53.464;9.852;2022-07-05T05:16:13;2.42;;;2.13;;
50319;SDS011;36226;53.464;9.852;2022-07-05T05:18:38;5.55;;;2.45;;
50319;SDS011;36226;53.464;9.852;2022-07-05T05:21:04;3.65;;;2.58;;
50319;SDS011;36226;53.464;9.852;2022-07-05T05:23:29;4.57;;;2.17;;
50319;SDS011;36226;53.464;9.852;2022-07-05T05:25:54;6.00;;;2.67;;
50319;SDS011;36226;53.464;9.852;2022-07-05T05:28:20;4.05;;;2.47;;
50319;SDS011;36226;53.464;9.852;2022-07-05T05:30:45;5.72;;;2.25;;
50319;SDS011;36226;53.464;9.852;2022-07-05T05:33:11;4.25;;;1.90;;
50319;SDS011;36226;53.464;9.852;2022-07-05T05:35:37;3.05;;;1.75;;
50319;SDS011;36226;53.464;9.852;2022-07-05T05:38:02;5.15;;;2.33;;
50319;SDS011;36226;53.464;9.852;2022-07-05T05:40:28;4.90;;;2.00;;
50319;SDS011;36226;53.464;9.852;2022-07-05T05:42:53;3.35;;;1.55;;
50319;SDS011;36226;53.464;9.852;2022-07-05T05:45:19;3.72;;;1.92;;
50319;SDS011;36226;53.464;9.852;2022-07-05T05:47:49;5.10;;;1.90;;
50319;SDS011;36226;53.464;9.852;2022-07-05T05:50:18;6.85;;;2.20;;
50319;SDS011;36226;53.464;9.852;2022-07-05T05:52:44;4.95;;;1.77;;
50319;SDS011;36226;53.464;9.852;2022-07-05T05:55:09;4.97;;;1.80;;
50319;SDS011;36226;53.464;9.852;2022-07-05T05:57:35;4.30;;;2.22;;
50319;SDS011;36226;53.464;9.852;2022-07-05T06:00:02;3.92;;;1.67;;
50319;SDS011;36226;53.464;9.852;2022-07-05T06:02:31;3.55;;;1.80;;
50319;SDS011;36226;53.464;9.852;2022-07-05T06:04:56;4.85;;;1.65;;
50319;SDS011;36226;53.464;9.852;2022-07-05T06:07:22;3.53;;;1.75;;
50319;SDS011;36226;53.464;9.852;2022-07-05T06:09:47;2.40;;;1.50;;
50319;SDS011;36226;53.464;9.852;2022-07-05T06:12:13;3.55;;;2.10;;
50319;SDS011;36226;53.464;9.852;2022-07-05T06:14:38;4.30;;;1.88;;
50319;SDS011;36226;53.464;9.852;2022-07-05T06:17:03;3.38;;;1.85;;
50319;SDS011;36226;53.464;9.852;2022-07-05T06:19:29;2.08;;;1.70;;
50319;SDS011;36226;53.464;9.852;2022-07-05T06:21:54;1.85;;;1.45;;
50319;SDS011;36226;53.464;9.852;2022-07-05T06:24:19;3.75;;;1.50;;
50319;SDS011;36226;53.464;9.852;2022-07-05T06:26:45;2.70;;;1.20;;
50319;SDS011;36226;53.464;9.852;2022-07-05T06:29:10;1.98;;;1.30;;
50319;SDS011;36226;53.464;9.852;2022-07-05T06:31:36;7.15;;;1.63;;
50319;SDS011;36226;53.464;9.852;2022-07-05T06:34:01;4.28;;;1.35;;
50319;SDS011;36226;53.464;9.852;2022-07-05T06:36:26;7.53;;;1.40;;
50319;SDS011;36226;53.464;9.852;2022-07-05T06:38:52;4.18;;;1.38;;
50319;SDS011;36226;53.464;9.852;2022-07-05T06:41:17;2.42;;;1.23;;
50319;SDS011;36226;53.464;9.852;2022-07-05T06:43:42;2.80;;;1.20;;
50319;SDS011;36226;53.464;9.852;2022-07-05T06:46:07;4.20;;;1.10;;
50319;SDS011;36226;53.464;9.852;2022-07-05T06:48:33;1.75;;;1.00;;
50319;SDS011;36226;53.464;9.852;2022-07-05T06:50:58;2.58;;;1.23;;
50319;SDS011;36226;53.464;9.852;2022-07-05T06:53:24;4.13;;;1.05;;
50319;SDS011;36226;53.464;9.852;2022-07-05T06:55:49;3.85;;;1.02;;
50319;SDS011;36226;53.464;9.852;2022-07-05T06:58:15;6.13;;;1.48;;
50319;SDS011;36226;53.464;9.852;2022-07-05T07:00:41;2.33;;;1.05;;
50319;SDS011;36226;53.464;9.852;2022-07-05T07:03:07;6.10;;;1.30;;
50319;SDS011;36226;53.464;9.852;2022-07-05T07:05:32;2.70;;;1.05;;
50319;SDS011;36226;53.464;9.852;2022-07-05T07:07:57;2.25;;;1.20;;
50319;SDS011;36226;53.464;9.852;2022-07-05T07:10:41;4.35;;;1.20;;
50319;SDS011;36226;53.464;9.852;2022-07-05T07:13:07;3.28;;;1.30;;
50319;SDS011;36226;53.464;9.852;2022-07-05T07:15:32;3.58;;;1.10;;
50319;SDS011;36226;53.464;9.852;2022-07-05T07:18:00;1.92;;;1.20;;
50319;SDS011;36226;53.464;9.852;2022-07-05T07:20:26;3.10;;;1.00;;
50319;SDS011;36226;53.464;9.852;2022-07-05T07:22:52;2.08;;;1.00;;
50319;SDS011;36226;53.464;9.852;2022-07-05T07:25:17;1.90;;;0.85;;
50319;SDS011;36226;53.464;9.852;2022-07-05T07:27:45;4.15;;;0.90;;
50319;SDS011;36226;53.464;9.852;2022-07-05T07:30:11;4.03;;;1.08;;
50319;SDS011;36226;53.464;9.852;2022-07-05T07:32:38;4.22;;;0.80;;
50319;SDS011;36226;53.464;9.852;2022-07-05T07:35:04;1.98;;;0.80;;
50319;SDS011;36226;53.464;9.852;2022-07-05T07:37:30;4.55;;;1.00;;
50319;SDS011;36226;53.464;9.852;2022-07-05T07:39:55;3.00;;;0.50;;
50319;SDS011;36226;53.464;9.852;2022-07-05T07:42:21;0.80;;;0.45;;
50319;SDS011;36226;53.464;9.852;2022-07-05T07:44:46;3.13;;;0.55;;
50319;SDS011;36226;53.464;9.852;2022-07-05T07:47:12;4.70;;;0.68;;
50319;SDS011;36226;53.464;9.852;2022-07-05T07:49:37;3.85;;;0.63;;
50319;SDS011;36226;53.464;9.852;2022-07-05T07:52:03;1.88;;;0.60;;
50319;SDS011;36226;53.464;9.852;2022-07-05T07:54:29;4.10;;;0.60;;
50319;SDS011;36226;53.464;9.852;2022-07-05T07:56:54;2.03;;;0.50;;
50319;SDS011;36226;53.464;9.852;2022-07-05T07:59:19;1.60;;;0.60;;
50319;SDS011;36226;53.464;9.852;2022-07-05T08:01:45;1.15;;;0.40;;
50319;SDS011;36226;53.464;9.852;2022-07-05T08:04:10;2.72;;;0.40;;
50319;SDS011;36226;53.464;9.852;2022-07-05T08:06:37;1.45;;;0.60;;
50319;SDS011;36226;53.464;9.852;2022-07-05T08:09:03;1.25;;;0.40;;
50319;SDS011;36226;53.464;9.852;2022-07-05T08:11:28;1.02;;;0.20;;
50319;SDS011;36226;53.464;9.852;2022-07-05T08:13:53;1.40;;;0.30;;
50319;SDS011;36226;53.464;9.852;2022-07-05T08:16:19;0.80;;;0.30;;
50319;SDS011;36226;53.464;9.852;2022-07-05T08:18:44;0.65;;;0.20;;
50319;SDS011;36226;53.464;9.852;2022-07-05T08:21:28;2.25;;;0.20;;
50319;SDS011;36226;53.464;9.852;2022-07-05T08:23:57;0.77;;;0.25;;
50319;SDS011;36226;53.464;9.852;2022-07-05T08:26:26;4.95;;;0.43;;
50319;SDS011;36226;53.464;9.852;2022-07-05T08:28:52;1.17;;;0.35;;
50319;SDS011;36226;53.464;9.852;2022-07-05T08:31:18;1.58;;;0.40;;
50319;SDS011;36226;53.464;9.852;2022-07-05T08:33:43;1.65;;;0.30;;
50319;SDS011;36226;53.464;9.852;2022-07-05T08:36:09;2.38;;;0.40;;
50319;SDS011;36226;53.464;9.852;2022-07-05T08:38:34;0.47;;;0.40;;
50319;SDS011;36226;53.464;9.852;2022-07-05T08:40:59;2.45;;;0.50;;
50319;SDS011;36226;53.464;9.852;2022-07-05T08:43:25;1.60;;;0.50;;
50319;SDS011;36226;53.464;9.852;2022-07-05T08:45:53;2.85;;;0.60;;
50319;SDS011;36226;53.464;9.852;2022-07-05T08:48:19;0.77;;;0.40;;
50319;SDS011;36226;53.464;9.852;2022-07-05T08:50:45;1.38;;;0.70;;
50319;SDS011;36226;53.464;9.852;2022-07-05T08:53:13;0.60;;;0.43;;
50319;SDS011;36226;53.464;9.852;2022-07-05T08:55:39;0.30;;;0.30;;
50319;SDS011;36226;53.464;9.852;2022-07-05T08:58:05;3.10;;;0.35;;
50319;SDS011;36226;53.464;9.852;2022-07-05T09:00:30;2.10;;;0.32;;
50319;SDS011;36226;53.464;9.852;2022-07-05T09:02:56;1.15;;;0.40;;
50319;SDS011;36226;53.464;9.852;2022-07-05T09:05:22;0.70;;;0.30;;
50319;SDS011;36226;53.464;9.852;2022-07-05T09:07:51;2.15;;;0.57;;
50319;SDS011;36226;53.464;9.852;2022-07-05T09:10:25;3.58;;;0.60;;
50319;SDS011;36226;53.464;9.852;2022-07-05T09:12:51;0.73;;;0.30;;
50319;SDS011;36226;53.464;9.852;2022-07-05T09:15:16;3.08;;;0.70;;
50319;SDS011;36226;53.464;9.852;2022-07-05T09:17:45;2.40;;;0.50;;
50319;SDS011;36226;53.464;9.852;2022-07-05T09:20:11;1.17;;;0.43;;
50319;SDS011;36226;53.464;9.852;2022-07-05T09:22:41;1.42;;;0.30;;
50319;SDS011;36226;53.464;9.852;2022-07-05T09:27:58;1.20;;;0.30;;
50319;SDS011;36226;53.464;9.852;2022-07-05T09:30:34;1.10;;;0.20;;
50319;SDS011;36226;53.464;9.852;2022-07-05T09:38:05;1.48;;;0.40;;
50319;SDS011;36226;53.464;9.852;2022-07-05T09:40:53;1.02;;;0.43;;
50319;SDS011;36226;53.464;9.852;2022-07-05T09:43:21;0.60;;;0.30;;
50319;SDS011;36226;53.464;9.852;2022-07-05T09:45:52;0.93;;;0.30;;
50319;SDS011;36226;53.464;9.852;2022-07-05T09:48:18;2.00;;;0.30;;
50319;SDS011;36226;53.464;9.852;2022-07-05T09:50:43;1.83;;;0.40;;
50319;SDS011;36226;53.464;9.852;2022-07-05T09:53:10;1.75;;;0.35;;
50319;SDS011;36226;53.464;9.852;2022-07-05T09:55:36;2.58;;;0.50;;
50319;SDS011;36226;53.464;9.852;2022-07-05T09:58:02;4.15;;;0.50;;
50319;SDS011;36226;53.464;9.852;2022-07-05T10:00:28;0.40;;;0.25;;
50319;SDS011;36226;53.464;9.852;2022-07-05T10:02:55;1.23;;;0.35;;
50319;SDS011;36226;53.464;9.852;2022-07-05T10:05:28;0.90;;;0.38;;
50319;SDS011;36226;53.464;9.852;2022-07-05T10:07:55;1.30;;;0.30;;
50319;SDS011;36226;53.464;9.852;2022-07-05T10:10:23;2.65;;;0.40;;
50319;SDS011;36226;53.464;9.852;2022-07-05T10:12:50;3.25;;;0.40;;
50319;SDS011;36226;53.464;9.852;2022-07-05T10:15:20;1.73;;;0.28;;
50319;SDS011;36226;53.464;9.852;2022-07-05T10:18:00;1.92;;;0.30;;
50319;SDS011;36226;53.464;9.852;2022-07-05T10:23:01;1.27;;;0.30;;
50319;SDS011;36226;53.464;9.852;2022-07-05T10:25:27;1.70;;;0.28;;
50319;SDS011;36226;53.464;9.852;2022-07-05T10:27:53;0.77;;;0.20;;
50319;SDS011;36226;53.464;9.852;2022-07-05T10:30:22;1.15;;;0.40;;
50319;SDS011;36226;53.464;9.852;2022-07-05T10:32:48;0.90;;;0.20;;
50319;SDS011;36226;53.464;9.852;2022-07-05T10:35:15;1.02;;;0.30;;
50319;SDS011;36226;53.464;9.852;2022-07-05T10:37:40;1.00;;;0.20;;
50319;SDS011;36226;53.464;9.852;2022-07-05T10:40:06;1.08;;;0.22;;
50319;SDS011;36226;53.464;9.852;2022-07-05T10:42:33;2.13;;;0.40;;
50319;SDS011;36226;53.464;9.852;2022-07-05T10:45:01;1.48;;;0.50;;
50319;SDS011;36226;53.464;9.852;2022-07-05T10:47:27;0.47;;;0.30;;
50319;SDS011;36226;53.464;9.852;2022-07-05T10:50:02;1.40;;;0.30;;
50319;SDS011;36226;53.464;9.852;2022-07-05T10:52:31;1.02;;;0.40;;
50319;SDS011;36226;53.464;9.852;2022-07-05T10:55:17;0.88;;;0.22;;
50319;SDS011;36226;53.464;9.852;2022-07-05T11:00:46;0.90;;;0.28;;
50319;SDS011;36226;53.464;9.852;2022-07-05T11:06:30;1.90;;;0.30;;
50319;SDS011;36226;53.464;9.852;2022-07-05T11:11:34;1.20;;;0.40;;
50319;SDS011;36226;53.464;9.852;2022-07-05T11:16:37;0.50;;;0.30;;
50319;SDS011;36226;53.464;9.852;2022-07-05T11:19:09;0.50;;;0.40;;
50319;SDS011;36226;53.464;9.852;2022-07-05T11:21:39;1.42;;;0.40;;
50319;SDS011;36226;53.464;9.852;2022-07-05T11:26:50;1.27;;;0.30;;
50319;SDS011;36226;53.464;9.852;2022-07-05T11:32:09;1.08;;;0.40;;
50319;SDS011;36226;53.464;9.852;2022-07-05T11:34:35;3.60;;;0.40;;
50319;SDS011;36226;53.464;9.852;2022-07-05T11:39:39;1.40;;;0.30;;
50319;SDS011;36226;53.464;9.852;2022-07-05T11:42:10;2.58;;;0.30;;
50319;SDS011;36226;53.464;9.852;2022-07-05T11:44:37;1.80;;;0.30;;
50319;SDS011;36226;53.464;9.852;2022-07-05T11:47:05;1.65;;;0.30;;
50319;SDS011;36226;53.464;9.852;2022-07-05T11:49:31;0.98;;;0.40;;
50319;SDS011;36226;53.464;9.852;2022-07-05T11:52:00;0.77;;;0.30;;
50319;SDS011;36226;53.464;9.852;2022-07-05T11:54:30;1.50;;;0.93;;
50319;SDS011;36226;53.464;9.852;2022-07-05T11:56:56;1.40;;;0.40;;
50319;SDS011;36226;53.464;9.852;2022-07-05T11:59:22;1.20;;;0.40;;
50319;SDS011;36226;53.464;9.852;2022-07-05T12:01:48;1.23;;;0.40;;
50319;SDS011;36226;53.464;9.852;2022-07-05T12:04:24;1.48;;;0.40;;
50319;SDS011;36226;53.464;9.852;2022-07-05T12:06:50;0.50;;;0.30;;
50319;SDS011;36226;53.464;9.852;2022-07-05T12:09:22;0.95;;;0.40;;
50319;SDS011;36226;53.464;9.852;2022-07-05T12:12:17;4.43;;;0.60;;
50319;SDS011;36226;53.464;9.852;2022-07-05T12:15:05;1.75;;;0.38;;
50319;SDS011;36226;53.464;9.852;2022-07-05T12:17:33;1.25;;;0.20;;
50319;SDS011;36226;53.464;9.852;2022-07-05T12:19:59;0.98;;;0.40;;
50319;SDS011;36226;53.464;9.852;2022-07-05T12:24:56;1.02;;;0.30;;
50319;SDS011;36226;53.464;9.852;2022-07-05T12:27:23;1.40;;;0.47;;
50319;SDS011;36226;53.464;9.852;2022-07-05T12:29:49;0.93;;;0.40;;
50319;SDS011;36226;53.464;9.852;2022-07-05T12:32:15;0.77;;;0.38;;
50319;SDS011;36226;53.464;9.852;2022-07-05T12:34:40;2.30;;;0.38;;
50319;SDS011;36226;53.464;9.852;2022-07-05T12:37:05;3.10;;;0.43;;
50319;SDS011;36226;53.464;9.852;2022-07-05T12:39:31;1.05;;;0.30;;
50319;SDS011;36226;53.464;9.852;2022-07-05T12:41:56;1.40;;;0.28;;
50319;SDS011;36226;53.464;9.852;2022-07-05T12:44:22;4.30;;;0.40;;
50319;SDS011;36226;53.464;9.852;2022-07-05T12:46:47;0.88;;;0.30;;
50319;SDS011;36226;53.464;9.852;2022-07-05T12:49:14;1.35;;;0.38;;
50319;SDS011;36226;53.464;9.852;2022-07-05T12:51:41;2.10;;;0.30;;
50319;SDS011;36226;53.464;9.852;2022-07-05T12:54:07;5.63;;;0.43;;
50319;SDS011;36226;53.464;9.852;2022-07-05T12:57:01;2.00;;;0.52;;
50319;SDS011;36226;53.464;9.852;2022-07-05T13:02:46;1.30;;;0.50;;
50319;SDS011;36226;53.464;9.852;2022-07-05T13:05:21;0.73;;;0.30;;
50319;SDS011;36226;53.464;9.852;2022-07-05T13:07:48;3.03;;;0.70;;
50319;SDS011;36226;53.464;9.852;2022-07-05T13:10:17;4.45;;;0.60;;
50319;SDS011;36226;53.464;9.852;2022-07-05T13:12:43;0.77;;;0.45;;
50319;SDS011;36226;53.464;9.852;2022-07-05T13:15:08;1.02;;;0.40;;
50319;SDS011;36226;53.464;9.852;2022-07-05T13:17:34;1.05;;;0.40;;
50319;SDS011;36226;53.464;9.852;2022-07-05T13:19:59;0.60;;;0.40;;
50319;SDS011;36226;53.464;9.852;2022-07-05T13:22:26;1.30;;;0.50;;
50319;SDS011;36226;53.464;9.852;2022-07-05T13:24:51;2.10;;;0.50;;
50319;SDS011;36226;53.464;9.852;2022-07-05T13:27:17;2.38;;;0.40;;
50319;SDS011;36226;53.464;9.852;2022-07-05T13:29:42;1.00;;;0.30;;
50319;SDS011;36226;53.464;9.852;2022-07-05T13:32:08;1.48;;;0.70;;
50319;SDS011;36226;53.464;9.852;2022-07-05T13:34:33;1.48;;;0.30;;
50319;SDS011;36226;53.464;9.852;2022-07-05T13:36:59;2.13;;;0.50;;
50319;SDS011;36226;53.464;9.852;2022-07-05T13:39:26;3.00;;;0.60;;
50319;SDS011;36226;53.464;9.852;2022-07-05T13:41:52;1.58;;;0.52;;
50319;SDS011;36226;53.464;9.852;2022-07-05T13:44:19;1.75;;;0.82;;
50319;SDS011;36226;53.464;9.852;2022-07-05T13:46:44;2.60;;;0.50;;
50319;SDS011;36226;53.464;9.852;2022-07-05T13:49:09;3.45;;;0.63;;
50319;SDS011;36226;53.464;9.852;2022-07-05T13:51:35;1.38;;;0.32;;
50319;SDS011;36226;53.464;9.852;2022-07-05T13:54:00;3.20;;;0.63;;
50319;SDS011;36226;53.464;9.852;2022-07-05T13:56:26;2.60;;;0.47;;
50319;SDS011;36226;53.464;9.852;2022-07-05T13:58:52;1.60;;;0.60;;
50319;SDS011;36226;53.464;9.852;2022-07-05T14:01:18;2.92;;;0.60;;
50319;SDS011;36226;53.464;9.852;2022-07-05T14:03:45;3.13;;;0.30;;
50319;SDS011;36226;53.464;9.852;2022-07-05T14:06:11;3.13;;;0.45;;
50319;SDS011;36226;53.464;9.852;2022-07-05T14:08:36;1.83;;;0.40;;
50319;SDS011;36226;53.464;9.852;2022-07-05T14:11:02;5.45;;;0.40;;
50319;SDS011;36226;53.464;9.852;2022-07-05T14:13:27;2.63;;;0.38;;
50319;SDS011;36226;53.464;9.852;2022-07-05T14:15:54;4.68;;;0.88;;
50319;SDS011;36226;53.464;9.852;2022-07-05T14:18:20;1.83;;;0.40;;
50319;SDS011;36226;53.464;9.852;2022-07-05T14:20:46;1.13;;;0.38;;
50319;SDS011;36226;53.464;9.852;2022-07-05T14:23:12;1.80;;;0.50;;
50319;SDS011;36226;53.464;9.852;2022-07-05T14:25:41;2.53;;;0.50;;
50319;SDS011;36226;53.464;9.852;2022-07-05T14:28:07;5.18;;;0.60;;
50319;SDS011;36226;53.464;9.852;2022-07-05T14:30:33;4.80;;;0.50;;
50319;SDS011;36226;53.464;9.852;2022-07-05T14:32:59;2.70;;;0.50;;
50319;SDS011;36226;53.464;9.852;2022-07-05T14:35:24;3.25;;;0.60;;
50319;SDS011;36226;53.464;9.852;2022-07-05T14:37:50;3.30;;;0.70;;
50319;SDS011;36226;53.464;9.852;2022-07-05T14:40:15;3.00;;;0.60;;
50319;SDS011;36226;53.464;9.852;2022-07-05T14:42:40;1.98;;;0.60;;
50319;SDS011;36226;53.464;9.852;2022-07-05T14:45:06;1.00;;;0.38;;
50319;SDS011;36226;53.464;9.852;2022-07-05T14:47:31;3.47;;;0.70;;
50319;SDS011;36226;53.464;9.852;2022-07-05T14:49:57;1.65;;;0.40;;
50319;SDS011;36226;53.464;9.852;2022-07-05T14:52:22;2.72;;;0.70;;
50319;SDS011;36226;53.464;9.852;2022-07-05T14:54:47;2.22;;;0.43;;
50319;SDS011;36226;53.464;9.852;2022-07-05T14:57:13;3.10;;;0.60;;
50319;SDS011;36226;53.464;9.852;2022-07-05T14:59:38;3.05;;;0.60;;
50319;SDS011;36226;53.464;9.852;2022-07-05T15:02:04;2.70;;;0.50;;
50319;SDS011;36226;53.464;9.852;2022-07-05T15:04:31;1.83;;;0.50;;
50319;SDS011;36226;53.464;9.852;2022-07-05T15:06:57;3.55;;;0.55;;
50319;SDS011;36226;53.464;9.852;2022-07-05T15:09:22;2.75;;;0.38;;
50319;SDS011;36226;53.464;9.852;2022-07-05T15:11:47;4.25;;;0.50;;
50319;SDS011;36226;53.464;9.852;2022-07-05T15:14:13;1.05;;;0.40;;
50319;SDS011;36226;53.464;9.852;2022-07-05T15:16:38;2.10;;;0.80;;
50319;SDS011;36226;53.464;9.852;2022-07-05T15:19:05;1.45;;;0.75;;
50319;SDS011;36226;53.464;9.852;2022-07-05T15:21:32;2.05;;;0.65;;